createdAt,value
2022-08-22T00:01:53.159Z,68.54
2022-08-22T00:04:57.969Z,68.22
2022-08-22T00:08:04.412Z,68.39
2022-08-22T00:11:09.335Z,68.12
2022-08-22T00:14:17.327Z,68.31
2022-08-22T00:17:41.409Z,68.77
2022-08-22T00:20:45.798Z,68.73
2022-08-22T00:23:50.872Z,68.76
2022-08-22T00:26:55.373Z,68.39
2022-08-22T00:30:00.705Z,68.34
2022-08-22T00:33:15.026Z,68.49
2022-08-22T00:36:22.985Z,68.27
2022-08-22T00:39:28.109Z,68.49
2022-08-22T00:43:01.017Z,68.64
2022-08-22T00:46:11.105Z,68.28
2022-08-22T00:49:38.659Z,68.41
2022-08-22T00:53:18.360Z,68.37
2022-08-22T00:56:55.648Z,68.53
2022-08-22T01:00:12.280Z,68.37
2022-08-22T01:03:27.120Z,68.59
2022-08-22T01:06:37.512Z,68.35
2022-08-22T01:09:46.452Z,68.57
2022-08-22T01:12:58.156Z,68.43
2022-08-22T01:16:05.514Z,68.60
2022-08-22T01:19:20.114Z,68.94
2022-08-22T01:22:36.363Z,68.46
2022-08-22T01:26:05.461Z,68.74
2022-08-22T01:29:49.861Z,69.11
2022-08-22T01:33:20.900Z,69.25
2022-08-22T01:36:47.896Z,69.71
2022-08-22T01:40:03.732Z,69.41
2022-08-22T01:43:10.831Z,69.32
2022-08-22T01:46:23.090Z,69.81
2022-08-22T01:49:28.137Z,69.85
2022-08-22T01:52:35.820Z,70.37
2022-08-22T01:55:42.126Z,70.53
2022-08-22T01:58:45.670Z,70.74
2022-08-22T02:02:10.367Z,70.85
2022-08-22T02:05:19.740Z,71.22
2022-08-22T02:08:28.498Z,71.19
2022-08-22T02:11:39.026Z,71.04
2022-08-22T02:14:43.086Z,71.32
2022-08-22T02:18:00.501Z,71.48
2022-08-22T02:21:06.267Z,71.29
2022-08-22T02:24:19.479Z,71.56
2022-08-22T02:27:27.159Z,71.57
2022-08-22T02:30:45.676Z,71.60
2022-08-22T02:33:51.473Z,71.73
2022-08-22T02:36:58.102Z,71.71
2022-08-22T02:40:08.020Z,71.81
2022-08-22T02:43:13.518Z,71.87
2022-08-22T02:46:23.967Z,71.85
2022-08-22T02:49:29.372Z,71.80
2022-08-22T02:52:39.938Z,71.58
2022-08-22T02:55:51.559Z,71.82
2022-08-22T02:58:59.190Z,71.46
2022-08-22T03:02:25.047Z,71.77
2022-08-22T03:05:29.548Z,71.85
2022-08-22T03:08:33.486Z,71.95
2022-08-22T03:11:39.335Z,71.97
2022-08-22T03:14:44.324Z,71.75
2022-08-22T03:17:50.360Z,72.03
2022-08-22T03:20:54.820Z,71.51
2022-08-22T03:23:59.211Z,71.83
2022-08-22T03:27:06.210Z,71.78
2022-08-22T03:30:12.455Z,71.98
2022-08-22T03:33:19.643Z,72.25
2022-08-22T03:36:26.741Z,72.43
2022-08-22T03:39:58.683Z,72.33
2022-08-22T03:43:12.777Z,72.56
2022-08-22T03:46:34.697Z,72.74
2022-08-22T03:49:55.662Z,72.48
2022-08-22T03:53:42.239Z,72.90
2022-08-22T03:57:20.340Z,72.71
2022-08-22T04:00:33.477Z,72.69
2022-08-22T04:04:14.382Z,73.11
2022-08-22T04:07:38.220Z,72.85
2022-08-22T04:11:14.204Z,72.83
2022-08-22T04:14:25.116Z,72.93
2022-08-22T04:17:37.604Z,72.92
2022-08-22T04:21:07.187Z,73.08
2022-08-22T04:24:32.198Z,73.49
2022-08-22T04:27:38.892Z,73.20
2022-08-22T04:30:43.830Z,73.20
2022-08-22T04:33:50.468Z,73.40
2022-08-22T04:36:56.228Z,73.72
2022-08-22T04:40:00.959Z,73.25
2022-08-22T04:43:06.527Z,73.57
2022-08-22T04:46:11.846Z,73.51
2022-08-22T04:49:20.314Z,73.82
2022-08-22T04:52:25.493Z,73.54
2022-08-22T04:55:34.423Z,73.35
2022-08-22T04:58:42.870Z,73.42
2022-08-22T05:01:47.282Z,73.79
2022-08-22T05:04:53.573Z,73.50
2022-08-22T05:07:57.441Z,73.32
2022-08-22T05:11:01.060Z,73.51
2022-08-22T05:14:05.052Z,73.38
2022-08-22T05:17:08.919Z,73.63
2022-08-22T05:20:14.340Z,73.35
2022-08-22T05:23:18.703Z,73.59
2022-08-22T05:26:21.295Z,73.43
2022-08-22T05:29:25.513Z,73.41
2022-08-22T05:32:29.935Z,73.49
2022-08-22T05:35:37.111Z,73.89
2022-08-22T05:38:40.311Z,73.83
2022-08-22T05:41:43.462Z,73.88
2022-08-22T05:44:46.107Z,73.93
2022-08-22T05:47:50.150Z,73.58
2022-08-22T05:50:56.689Z,73.59
2022-08-22T05:54:07.195Z,73.16
2022-08-22T05:57:11.926Z,72.54
2022-08-22T06:00:19.145Z,72.17
2022-08-22T06:03:26.788Z,71.60
2022-08-22T06:06:31.156Z,71.49
2022-08-22T06:09:38.610Z,71.11
2022-08-22T06:12:43.297Z,71.23
2022-08-22T06:15:48.174Z,71.45
2022-08-22T06:18:53.961Z,71.68
2022-08-22T06:21:57.995Z,71.62
2022-08-22T06:25:06.386Z,71.28
2022-08-22T06:28:10.146Z,71.68
2022-08-22T06:31:14.513Z,71.45
2022-08-22T06:34:18.439Z,71.12
2022-08-22T06:37:24.610Z,71.28
2022-08-22T06:40:27.408Z,71.82
2022-08-22T06:43:36.466Z,71.46
2022-08-22T06:46:39.052Z,71.29
2022-08-22T06:49:41.615Z,70.79
2022-08-22T06:52:51.186Z,70.75
2022-08-22T06:55:55.631Z,70.00
2022-08-22T06:58:59.928Z,69.92
2022-08-22T07:02:05.044Z,70.11
2022-08-22T07:05:08.509Z,69.75
2022-08-22T07:08:14.503Z,69.81
2022-08-22T07:11:21.696Z,69.48
2022-08-22T07:14:29.916Z,69.23
2022-08-22T07:17:34.043Z,68.60
2022-08-22T07:20:41.933Z,68.05
2022-08-22T07:23:48.025Z,67.47
2022-08-22T07:26:56.940Z,67.53
2022-08-22T07:30:03.179Z,67.44
2022-08-22T07:33:17.724Z,66.68
2022-08-22T07:36:31.951Z,66.97
2022-08-22T07:39:37.635Z,66.51
2022-08-22T07:42:42.871Z,66.46
2022-08-22T07:45:50.587Z,65.81
2022-08-22T07:49:08.723Z,65.22
2022-08-22T07:52:13.516Z,65.57
2022-08-22T07:55:19.706Z,65.19
2022-08-22T07:58:22.544Z,64.85
2022-08-22T08:01:25.413Z,65.00
2022-08-22T08:04:30.283Z,64.50
2022-08-22T08:07:32.876Z,64.99
2022-08-22T08:10:39.399Z,63.85
2022-08-22T08:13:43.142Z,63.93
2022-08-22T08:16:50.702Z,63.26
2022-08-22T08:19:54.435Z,63.04
2022-08-22T08:22:58.390Z,61.85
2022-08-22T08:26:04.354Z,61.85
2022-08-22T08:29:07.478Z,61.52
2022-08-22T08:32:11.032Z,61.02
2022-08-22T08:35:19.744Z,60.81
2022-08-22T08:38:24.168Z,60.66
2022-08-22T08:41:57.355Z,60.23
2022-08-22T08:45:14.096Z,59.68
2022-08-22T08:48:34.801Z,58.17
2022-08-22T08:52:04.192Z,55.42
2022-08-22T08:55:21.768Z,57.21
2022-08-22T08:58:40.710Z,56.10
2022-08-22T09:02:02.476Z,53.42
2022-08-22T09:05:40.592Z,54.17
2022-08-22T09:09:03.679Z,54.79
2022-08-22T09:12:19.156Z,55.24
2022-08-22T09:15:42.751Z,54.51
2022-08-22T09:19:17.189Z,52.08
2022-08-22T09:22:25.862Z,52.36
2022-08-22T09:25:38.630Z,52.50
2022-08-22T09:28:48.543Z,51.30
2022-08-22T09:31:58.344Z,50.96
2022-08-22T09:35:05.760Z,51.04
2022-08-22T09:38:26.161Z,50.78
2022-08-22T09:41:36.796Z,50.74
2022-08-22T09:44:43.803Z,50.94
2022-08-22T09:47:48.879Z,49.84
2022-08-22T09:51:04.872Z,50.64
2022-08-22T09:54:31.633Z,50.31
2022-08-22T09:57:37.792Z,49.79
2022-08-22T10:00:44.257Z,49.43
2022-08-22T10:04:25.539Z,48.76
2022-08-22T10:07:36.241Z,49.19
2022-08-22T10:10:55.801Z,49.45
2022-08-22T10:14:02.204Z,50.12
2022-08-22T10:17:08.504Z,48.92
2022-08-22T10:20:14.827Z,49.09
2022-08-22T10:23:21.274Z,48.24
2022-08-22T10:26:30.214Z,48.06
2022-08-22T10:29:39.519Z,47.91
2022-08-22T10:32:44.511Z,47.66
2022-08-22T10:35:59.807Z,46.55
2022-08-22T10:39:09.579Z,47.77
2022-08-22T10:42:20.209Z,47.49
2022-08-22T10:45:35.976Z,46.75
2022-08-22T10:48:46.576Z,47.69
2022-08-22T10:51:52.755Z,46.71
2022-08-22T10:55:00.365Z,46.77
2022-08-22T10:58:04.646Z,46.80
2022-08-22T11:01:37.090Z,45.49
2022-08-22T11:04:37.698Z,44.41
2022-08-22T11:07:48.539Z,45.13
2022-08-22T11:11:13.842Z,44.58
2022-08-22T11:14:31.152Z,44.33
2022-08-22T11:18:00.679Z,44.14
2022-08-22T11:21:07.332Z,43.88
2022-08-22T11:24:17.150Z,43.37
2022-08-22T11:27:39.688Z,43.31
2022-08-22T11:30:46.388Z,41.53
2022-08-22T11:33:54.024Z,43.35
2022-08-22T11:36:57.665Z,43.07
2022-08-22T11:40:05.384Z,43.04
2022-08-22T11:43:28.735Z,43.55
2022-08-22T11:46:36.515Z,42.36
2022-08-22T11:49:45.675Z,43.54
2022-08-22T11:52:56.631Z,42.92
2022-08-22T11:56:11.330Z,43.83
2022-08-22T11:59:22.694Z,43.69
2022-08-22T12:02:27.633Z,42.97
2022-08-22T12:05:35.403Z,42.91
2022-08-22T12:09:17.945Z,41.47
2022-08-22T12:12:32.519Z,41.99
2022-08-22T12:15:40.480Z,42.41
2022-08-22T12:18:52.872Z,41.13
2022-08-22T12:22:17.772Z,41.53
2022-08-22T12:25:26.161Z,40.99
2022-08-22T12:28:32.035Z,40.99
2022-08-22T12:32:28.211Z,40.81
2022-08-22T12:35:36.028Z,41.08
2022-08-22T12:38:47.995Z,40.47
2022-08-22T12:42:15.982Z,37.23
2022-08-22T12:45:25.261Z,40.10
2022-08-22T12:48:45.776Z,40.28
2022-08-22T12:52:04.440Z,40.59
2022-08-22T12:55:20.385Z,39.60
2022-08-22T12:58:33.991Z,40.31
2022-08-22T13:01:41.346Z,40.51
2022-08-22T13:04:52.695Z,40.82
2022-08-22T13:07:56.071Z,40.69
2022-08-22T13:11:01.180Z,40.84
2022-08-22T13:14:03.969Z,40.85
2022-08-22T13:17:10.172Z,39.73
2022-08-22T13:20:30.975Z,39.06
2022-08-22T13:23:39.826Z,38.98
2022-08-22T13:26:49.098Z,38.74
2022-08-22T13:29:55.359Z,39.62
2022-08-22T13:33:04.477Z,40.18
2022-08-22T13:36:15.296Z,41.31
2022-08-22T13:39:24.391Z,40.62
2022-08-22T13:42:30.426Z,41.15
2022-08-22T13:45:33.580Z,40.66
2022-08-22T13:48:47.193Z,40.71
2022-08-22T13:51:55.029Z,40.71
2022-08-22T13:55:00.354Z,40.40
2022-08-22T13:58:06.959Z,40.73
2022-08-22T14:01:19.740Z,40.67
2022-08-22T14:04:34.843Z,41.14
2022-08-22T14:07:44.444Z,40.70
2022-08-22T14:10:50.522Z,40.87
2022-08-22T14:13:59.154Z,40.48
2022-08-22T14:17:01.804Z,40.47
2022-08-22T14:20:07.695Z,40.16
2022-08-22T14:23:18.484Z,39.92
2022-08-22T14:26:32.666Z,40.07
2022-08-22T14:29:40.475Z,40.14
2022-08-22T14:32:45.225Z,39.91
2022-08-22T14:35:52.833Z,39.82
2022-08-22T14:39:00.033Z,39.60
2022-08-22T14:42:10.104Z,39.36
2022-08-22T14:45:16.676Z,39.41
2022-08-22T14:48:31.447Z,39.58
2022-08-22T14:51:34.825Z,38.67
2022-08-22T14:54:39.350Z,39.18
2022-08-22T14:57:47.836Z,38.54
2022-08-22T15:00:51.310Z,38.78
2022-08-22T15:03:55.023Z,39.09
2022-08-22T15:06:58.903Z,39.02
2022-08-22T15:10:06.122Z,39.38
2022-08-22T15:13:09.029Z,39.30
2022-08-22T15:16:16.061Z,39.24
2022-08-22T15:19:25.497Z,39.33
2022-08-22T15:22:29.935Z,39.43
2022-08-22T15:25:35.092Z,39.09
2022-08-22T15:28:52.619Z,39.03
2022-08-22T15:31:58.356Z,39.03
2022-08-22T15:35:05.345Z,38.76
2022-08-22T15:38:11.269Z,38.72
2022-08-22T15:41:39.009Z,38.92
2022-08-22T15:44:44.215Z,39.62
2022-08-22T15:47:49.216Z,39.18
2022-08-22T15:50:59.390Z,39.42
2022-08-22T15:54:16.117Z,39.91
2022-08-22T15:57:29.254Z,39.61
2022-08-22T16:00:34.062Z,39.49
2022-08-22T16:03:38.176Z,39.39
2022-08-22T16:06:42.611Z,39.61
2022-08-22T16:09:48.087Z,39.21
2022-08-22T16:13:10.416Z,39.32
2022-08-22T16:16:55.314Z,40.05
2022-08-22T16:20:31.405Z,40.11
2022-08-22T16:23:35.168Z,40.22
2022-08-22T16:26:38.253Z,39.77
2022-08-22T16:29:42.327Z,40.03
2022-08-22T16:32:55.321Z,39.73
2022-08-22T16:36:36.986Z,39.97
2022-08-22T16:39:40.737Z,40.78
2022-08-22T16:42:44.773Z,40.71
2022-08-22T16:45:48.849Z,41.08
2022-08-22T16:48:54.762Z,41.42
2022-08-22T16:52:34.512Z,41.55
2022-08-22T16:55:51.264Z,41.32
2022-08-22T16:59:22.453Z,41.57
2022-08-22T17:02:38.454Z,41.93
2022-08-22T17:05:47.723Z,41.91
2022-08-22T17:08:55.820Z,42.15
2022-08-22T17:12:03.495Z,41.86
2022-08-22T17:15:12.980Z,42.42
2022-08-22T17:18:27.955Z,42.37
2022-08-22T17:21:31.387Z,42.81
2022-08-22T17:24:36.932Z,42.67
2022-08-22T17:27:42.300Z,43.06
2022-08-22T17:30:51.357Z,42.89
2022-08-22T17:34:05.422Z,42.70
2022-08-22T17:37:11.458Z,43.08
2022-08-22T17:40:24.069Z,43.19
2022-08-22T17:43:48.634Z,43.21
2022-08-22T17:46:54.179Z,43.31
2022-08-22T17:50:03.159Z,43.45
2022-08-22T17:53:08.429Z,43.46
2022-08-22T17:56:15.435Z,43.65
2022-08-22T17:59:21.060Z,43.56
2022-08-22T18:02:26.468Z,43.59
2022-08-22T18:05:32.725Z,43.79
2022-08-22T18:09:13.262Z,44.02
2022-08-22T18:12:05.784Z,44.30
2022-08-22T18:15:10.285Z,44.48
2022-08-22T18:18:15.873Z,44.71
2022-08-22T18:21:26.163Z,45.05
2022-08-22T18:24:33.083Z,45.66
2022-08-22T18:27:38.051Z,46.13
2022-08-22T18:30:51.555Z,46.44
2022-08-22T18:33:58.680Z,46.62
2022-08-22T18:37:07.162Z,46.97
2022-08-22T18:40:12.789Z,47.69
2022-08-22T18:43:17.782Z,47.73
2022-08-22T18:46:28.884Z,48.10
2022-08-22T18:49:43.209Z,48.48
2022-08-22T18:52:47.211Z,48.40
2022-08-22T18:55:57.033Z,48.72
2022-08-22T18:59:05.996Z,48.99
2022-08-22T19:02:22.561Z,49.19
2022-08-22T19:05:33.400Z,49.38
2022-08-22T19:09:00.383Z,49.38
2022-08-22T19:12:06.398Z,49.85
2022-08-22T19:15:19.082Z,49.99
2022-08-22T19:18:36.182Z,50.02
2022-08-22T19:21:56.716Z,50.21
2022-08-22T19:25:09.076Z,50.22
2022-08-22T19:28:28.351Z,50.54
2022-08-22T19:31:46.346Z,50.45
2022-08-22T19:34:49.140Z,50.52
2022-08-22T19:37:52.960Z,50.28
2022-08-22T19:40:58.340Z,50.28
2022-08-22T19:44:01.292Z,50.53
2022-08-22T19:47:08.192Z,50.29
2022-08-22T19:50:25.066Z,51.29
2022-08-22T19:53:32.496Z,51.82
2022-08-22T19:56:56.193Z,51.37
2022-08-22T20:00:01.032Z,51.63
2022-08-22T20:03:07.431Z,51.70
2022-08-22T20:06:33.805Z,52.36
2022-08-22T20:09:41.720Z,52.75
2022-08-22T20:12:59.480Z,53.02
2022-08-22T20:16:18.199Z,53.32
2022-08-22T20:19:22.338Z,53.14
2022-08-22T20:22:26.088Z,53.53
2022-08-22T20:25:42.488Z,53.82
2022-08-22T20:28:48.814Z,53.94
2022-08-22T20:31:56.703Z,54.18
2022-08-22T20:35:01.860Z,54.33
2022-08-22T20:38:07.243Z,54.67
2022-08-22T20:41:16.122Z,54.86
2022-08-22T20:44:24.464Z,55.07
2022-08-22T20:47:40.745Z,55.17
2022-08-22T20:50:45.016Z,55.05
2022-08-22T20:53:52.116Z,55.25
2022-08-22T20:56:56.522Z,55.88
2022-08-22T21:00:07.253Z,56.02
2022-08-22T21:03:12.390Z,56.51
2022-08-22T21:06:16.257Z,56.55
2022-08-22T21:09:37.706Z,56.50
2022-08-22T21:12:40.340Z,56.50
2022-08-22T21:15:45.669Z,56.66
2022-08-22T21:18:49.108Z,56.41
2022-08-22T21:21:51.800Z,56.64
2022-08-22T21:24:55.226Z,57.01
2022-08-22T21:27:59.564Z,57.41
2022-08-22T21:31:11.455Z,57.46
2022-08-22T21:34:14.270Z,57.65
2022-08-22T21:37:18.293Z,57.74
2022-08-22T21:40:22.776Z,57.68
2022-08-22T21:43:30.632Z,58.19
2022-08-22T21:46:34.734Z,58.49
2022-08-22T21:49:37.413Z,58.62
2022-08-22T21:52:41.111Z,58.71
2022-08-22T21:55:44.447Z,59.39
2022-08-22T21:58:47.258Z,59.92
2022-08-22T22:01:51.332Z,60.56
2022-08-22T22:04:54.287Z,60.67
2022-08-22T22:07:57.013Z,60.80
2022-08-22T22:11:00.891Z,60.81
2022-08-22T22:14:03.704Z,61.41
2022-08-22T22:17:07.884Z,61.89
2022-08-22T22:20:11.180Z,62.46
2022-08-22T22:23:13.923Z,62.49
2022-08-22T22:26:16.589Z,62.78
2022-08-22T22:29:19.328Z,63.40
2022-08-22T22:32:23.385Z,63.73
2022-08-22T22:35:26.007Z,63.21
2022-08-22T22:38:28.624Z,63.67
2022-08-22T22:41:33.142Z,63.85
2022-08-22T22:44:35.870Z,63.58
2022-08-22T22:47:39.889Z,63.47
2022-08-22T22:50:44.074Z,63.65
2022-08-22T22:53:46.907Z,63.59
2022-08-22T22:56:49.536Z,63.49
2022-08-22T22:59:52.191Z,63.49
2022-08-22T23:02:56.662Z,63.44
2022-08-22T23:05:59.385Z,63.45
2022-08-22T23:09:02.056Z,63.64
2022-08-22T23:12:05.305Z,63.65
2022-08-22T23:15:08.695Z,63.70
2022-08-22T23:18:12.675Z,63.88
2022-08-22T23:21:16.952Z,63.93
2022-08-22T23:24:19.544Z,64.34
2022-08-22T23:27:22.208Z,64.09
2022-08-22T23:30:24.833Z,64.11
2022-08-22T23:33:29.045Z,64.20
2022-08-22T23:36:32.820Z,64.04
2022-08-22T23:39:35.899Z,64.22
2022-08-22T23:42:38.509Z,64.18
2022-08-22T23:45:41.188Z,64.06
2022-08-22T23:48:45.188Z,64.02
2022-08-22T23:51:48.598Z,64.15
2022-08-22T23:54:54.320Z,64.38
2022-08-22T23:57:58.446Z,64.15
